リヤド の空港の天気 - METARとTAF

キング・ハーリド国際空港(リヤド) ( OERK / RUH ) - サウジアラビア リヤド
飛行場実況気象(Metar)
観測時間04/25 17:00 AST (04/25 14:00 UTC)
風向・風速南東 3m/s
視程4000m
天気現象
少しの雲 雲底高度 910m
全天の8割程度の雲 雲底高度 1220m
全天を覆う雲 雲底高度 2440m
気温22℃
湿度78%
気圧1013hPa
METAROERK 251400Z 13005KT 4000 TS FEW030CB BKN040 OVC080 22/18 Q1013 NOSIG
過去の天気等 Google飛行場航空写真 Wunderground天気予報

過去48時間のMETAR

飛行場予報(TAF)
発表時間: 4/25 14:00 AST (4/25 11:00 UTC)
予報対象時間: 25日15時 AST ~ 26日21時 AST
風向・風速東南東 4m/s 瞬間風速 9m/s
視程6,000m
全天の4割程度の雲 雲底高度 1,220m
全天の4割程度の雲 雲底高度 3,050m
25日15時 AST ~ 26日3時 AST に一時的に
視程3,000m
天気現象高い風塵 雷雨
少しの積乱雲 雲底高度 1,070m
TAF OERK 251100Z 2512/2618 12008G18KT 6000 SCT040 SCT100
TEMPO 2512/2524 3000 BLDU TSRA FEW035CB